WSSLWMKP

Guest
Details From WSSL - Seletar
To WMKP - Penang Intl
Flight Number -
Tags generated
Created
Modified
Stats Distance 317 nm / 588 km
Max Altitude 10,500 ft / 3,200 m
Waypoints 5
Social Downloads 1
Likes 0
Share VATSIM

Download

Looking for another format? Having issues loading an existing format? Contact us
Advertisement - Login to hide

Notes

Basic altitude profile: - Ascent Rate: 2500ft/min - Ascent Speed: 79kts - Cruise Altitude: 10000ft - Cruise Speed: 126kts - Descent Rate: 1500ft/min - Descent Speed: 63kts

Route

WSSL DAMAL R325 ANSOM WMKP

ID Type Via Altitude Latitude Longitude Leg Dist Tot Dist Heading (true) Name
O WSSL APT - 0 ft / 0 m 1.41643˚ 103.86730˚ - 0 nm - Seletar
DAMAL FIX - 10,000 ft / 3,048 m 2.33194˚ 103.08667˚ 72 nm 72 nm 320° / 320° -
LATUK FIX R325 (AWY-HI) 10,500 ft / 3,200 m 2.92111˚ 102.56278˚ 47 nm 119 nm 318° / 318° -
ANSOM FIX R325 (AWY-HI) 10,000 ft / 3,048 m 4.07333˚ 101.53861˚ 92 nm 212 nm 318° / 318° -
O WMKP APT - 0 ft / 0 m 5.29714˚ 100.27687˚ 105 nm 317 nm 314° / 314° Penang Intl

Altitude Profile

Advertisement - Login to hide

Weather


0- 5 10 15 20 25 30 35+ Temperature / ° C

Clouds and Precipitation
Forecast for 2017-12-12 00:00 UTC. Updated 2 hours ago

Ground ~20,000 ft ~40,000 ft Winds

WSSL

Details ICAO WSSL (XSP)
Name Seletar
Region Singapore
Timezone Asia/Singapore (UTC+8.0)
Stats Elevation 36 ft / 11 m (AMSL)
Location 1.416427° 103.867299°
Runways 1
Magnetic Variation 0.218° E

METAR

WSSL 112000Z 35002KT 8000 FEW018 BKN300 26/24 Q1010 RMK 1430Z Q1012

Decode

TAF

Not found

Departure Runways

ID Width Length Bearing (true) Bearing (mag) Surface Threshold Offset Overrun Length
03 151 ft / 46 m 5,243 ft / 1,598 m 33.15° 32.93° Asphalt 0 ft / 0 m 197 ft / 60 m
21 151 ft / 46 m 5,243 ft / 1,598 m 213.15° 212.93° Asphalt 0 ft / 0 m 197 ft / 60 m

WMKP

Details ICAO WMKP (PEN)
Name Penang Intl
Region Malaysia (Peninsular Malaysia)
Timezone Asia/Kuala_Lumpur (UTC+8.0)
Stats Elevation 11 ft / 3 m (AMSL)
Location 5.297141° 100.276865°
Runways 1
Magnetic Variation 0.206° W

METAR

WMKP 112030Z VRB03KT 8000 FEW025 SCT140 BKN270 25/22 Q1010 NOSIG

Decode

TAF

TAF WMKP 111100Z 1112/1212 05005KT 9000 FEW025 SCT140 BKN270

Decode

Destination Runways

ID Width Length Bearing (true) Bearing (mag) Surface Threshold Offset Overrun Length
04 150 ft / 46 m 11,042 ft / 3,366 m 42.02° 42.23° Asphalt 0 ft / 0 m 205 ft / 62 m
22 150 ft / 46 m 11,042 ft / 3,366 m 222.02° 222.23° Asphalt 0 ft / 0 m 205 ft / 62 m

Approach Navaids

Runway Type Ident Frequency Range Bearing (true) Bearing (mag) Slope Elevation
04 Localiser IPG 109.90 MHz 18 nm / 33 km 42.88° 43.09° - 12 ft / 4 m (AMSL)
04 Glidescope IPG 109.90 MHz 10 nm / 19 km 42.02° 42.22° 3.00° 11 ft / 3 m (AMSL)
04 DME IPG 109.90 MHz 18 nm / 33 km - - - 11 ft / 3 m (AMSL)

Popular Alternatives